Time;durP1;ratioP1;P1;durP2;ratioP2;P2;SDS_P1;SDS_P2;PMS_P1;PMS_P2;Temp;Humidity;BMP_temperature;BMP_pressure;BME280_temperature;BME280_humidity;BME280_pressure;Samples;Min_cycle;Max_cycle;Signal;HPM_P1;HPM_P2
2021/10/12 00:00:06;;;;;;;1.55;1.20;;;18.40;67.30;;;;;;5053781;28;20217;-76
2021/10/12 00:02:31;;;;;;;1.65;1.02;;;18.40;67.40;;;;;;5053387;28;20175;-72
2021/10/12 00:04:57;;;;;;;1.85;1.27;;;18.40;67.30;;;;;;5053856;28;20182;-76
2021/10/12 00:07:22;;;;;;;1.70;1.15;;;18.40;67.30;;;;;;5053855;28;20167;-73
2021/10/12 00:09:48;;;;;;;2.33;1.30;;;18.30;67.30;;;;;;5052746;28;20646;-73
2021/10/12 00:12:13;;;;;;;2.58;1.60;;;18.30;67.30;;;;;;5053976;28;20171;-74
2021/10/12 00:14:38;;;;;;;3.05;1.20;;;18.30;67.30;;;;;;5053868;28;20183;-74
2021/10/12 00:17:04;;;;;;;1.98;1.20;;;18.30;67.30;;;;;;5052795;28;20171;-77
2021/10/12 00:19:30;;;;;;;1.70;1.10;;;18.30;67.30;;;;;;5053626;28;20678;-74
2021/10/12 00:21:55;;;;;;;1.83;1.30;;;18.30;67.30;;;;;;5053497;28;20178;-74
2021/10/12 00:24:20;;;;;;;3.47;1.75;;;18.30;67.30;;;;;;5052734;28;20704;-77
2021/10/12 00:26:46;;;;;;;1.73;1.08;;;18.30;67.30;;;;;;5053026;28;20176;-77
2021/10/12 00:29:11;;;;;;;2.65;1.00;;;18.30;67.30;;;;;;5053146;28;20182;-75
2021/10/12 00:31:37;;;;;;;2.40;1.52;;;18.30;67.30;;;;;;5052652;28;20174;-77
2021/10/12 00:34:02;;;;;;;3.42;1.60;;;18.30;67.30;;;;;;5053326;28;20496;-73
2021/10/12 00:36:28;;;;;;;1.27;1.10;;;18.30;67.30;;;;;;5053550;28;20174;-74
2021/10/12 00:38:54;;;;;;;2.63;1.27;;;18.30;67.30;;;;;;5052472;28;20214;-72
2021/10/12 00:41:20;;;;;;;1.45;1.27;;;18.30;67.30;;;;;;5053348;28;20167;-76
2021/10/12 00:43:46;;;;;;;1.52;1.00;;;18.30;67.30;;;;;;5053371;28;20175;-72
2021/10/12 00:46:11;;;;;;;1.10;1.00;;;18.30;67.30;;;;;;5052244;28;20229;-72
2021/10/12 00:48:37;;;;;;;1.92;1.30;;;18.30;67.30;;;;;;5053129;28;20641;-74
2021/10/12 00:51:02;;;;;;;1.20;1.02;;;18.30;67.30;;;;;;5053055;28;20254;-74
2021/10/12 00:53:29;;;;;;;1.92;1.10;;;18.30;67.20;;;;;;5052344;28;20175;-77
2021/10/12 00:55:55;;;;;;;1.25;1.00;;;18.30;67.30;;;;;;5052664;28;20653;-77
2021/10/12 00:58:21;;;;;;;2.75;1.15;;;18.20;67.20;;;;;;5052145;28;20225;-76
2021/10/12 01:00:46;;;;;;;1.17;1.00;;;18.20;67.30;;;;;;5052943;28;20171;-76
2021/10/12 01:03:12;;;;;;;1.13;1.00;;;18.20;67.20;;;;;;5052862;28;20175;-73
2021/10/12 01:05:37;;;;;;;1.60;1.08;;;18.20;67.20;;;;;;5052199;28;20163;-77
2021/10/12 01:08:03;;;;;;;1.98;1.42;;;18.20;67.20;;;;;;5052819;28;20293;-73
2021/10/12 01:10:29;;;;;;;1.88;1.15;;;18.20;67.20;;;;;;5053126;28;20528;-74
2021/10/12 01:12:55;;;;;;;1.40;0.98;;;18.20;67.10;;;;;;5051844;28;20171;-75
2021/10/12 01:15:20;;;;;;;2.42;1.33;;;18.20;67.20;;;;;;5052912;28;20177;-74
2021/10/12 01:17:45;;;;;;;2.92;1.40;;;18.20;67.20;;;;;;5052818;28;20232;-76
2021/10/12 01:20:11;;;;;;;2.40;1.45;;;18.20;67.20;;;;;;5051757;28;20551;-73
2021/10/12 01:22:41;;;;;;;2.38;1.23;;;18.20;67.20;;;;;;5052827;28;20182;-76
2021/10/12 01:25:07;;;;;;;1.83;1.17;;;18.20;67.20;;;;;;5052272;28;20348;-76
2021/10/12 01:27:32;;;;;;;2.70;1.50;;;18.20;67.10;;;;;;5052071;28;20195;-76
2021/10/12 01:29:58;;;;;;;1.48;1.00;;;18.20;67.10;;;;;;5052381;28;20645;-76
2021/10/12 01:32:23;;;;;;;2.20;1.15;;;18.10;67.10;;;;;;5052593;28;20172;-76
2021/10/12 01:34:49;;;;;;;1.85;1.15;;;18.20;67.10;;;;;;5051901;28;20186;-74
2021/10/12 01:37:14;;;;;;;1.88;1.23;;;18.10;67.00;;;;;;5053887;28;20224;-75
2021/10/12 01:39:40;;;;;;;1.58;1.08;;;18.10;67.10;;;;;;5056495;28;20210;-73
2021/10/12 01:42:05;;;;;;;3.25;1.50;;;18.10;67.10;;;;;;5055687;28;20648;-74
2021/10/12 01:44:31;;;;;;;2.47;1.23;;;18.10;67.10;;;;;;5056809;28;20262;-72
2021/10/12 01:46:57;;;;;;;1.58;1.13;;;18.10;67.00;;;;;;5056459;28;20175;-75
2021/10/12 01:49:22;;;;;;;1.70;1.25;;;18.10;67.00;;;;;;5055982;28;20175;-74
2021/10/12 01:51:48;;;;;;;1.40;1.23;;;18.10;67.10;;;;;;5056324;28;20175;-74
2021/10/12 01:54:18;;;;;;;1.58;1.08;;;18.10;67.10;;;;;;5056350;28;20723;-76
2021/10/12 01:56:44;;;;;;;2.22;1.13;;;18.10;67.00;;;;;;5055662;28;20190;-77
2021/10/12 01:59:10;;;;;;;1.10;1.02;;;18.10;67.10;;;;;;5056136;28;20235;-76
2021/10/12 02:01:36;;;;;;;1.70;1.15;;;18.10;67.00;;;;;;5055792;28;20229;-76
2021/10/12 02:04:01;;;;;;;1.23;0.93;;;18.10;67.00;;;;;;5056225;28;20228;-74
2021/10/12 02:06:27;;;;;;;2.20;1.33;;;18.10;67.10;;;;;;5056481;28;20170;-75
2021/10/12 02:08:52;;;;;;;2.00;1.20;;;18.10;67.00;;;;;;5055463;28;20235;-72
2021/10/12 02:11:18;;;;;;;1.15;0.90;;;18.10;67.10;;;;;;5056104;28;20174;-74
2021/10/12 02:13:43;;;;;;;2.40;1.10;;;18.10;67.00;;;;;;5056038;28;20174;-74
2021/10/12 02:16:09;;;;;;;1.10;1.00;;;18.10;67.10;;;;;;5055164;28;20175;-74
2021/10/12 02:18:34;;;;;;;1.85;1.00;;;18.10;67.10;;;;;;5055954;28;20570;-75
2021/10/12 02:20:59;;;;;;;1.40;1.20;;;18.10;67.00;;;;;;5055911;28;20171;-74
2021/10/12 02:23:26;;;;;;;1.73;1.02;;;18.10;67.10;;;;;;5055338;28;20261;-75
2021/10/12 02:25:52;;;;;;;1.73;1.10;;;18.00;66.90;;;;;;5055404;28;20581;-76
2021/10/12 02:28:17;;;;;;;1.63;1.08;;;18.10;67.10;;;;;;5055782;28;20254;-76
2021/10/12 02:30:43;;;;;;;0.98;0.77;;;18.00;67.00;;;;;;5054948;28;20580;-76
2021/10/12 02:33:08;;;;;;;1.73;0.90;;;18.10;67.10;;;;;;5055601;28;20171;-75
2021/10/12 02:35:34;;;;;;;1.83;1.10;;;18.00;67.00;;;;;;5055805;28;20207;-77
2021/10/12 02:38:00;;;;;;;1.73;1.08;;;18.10;67.20;;;;;;5054567;28;20261;-73
2021/10/12 02:40:25;;;;;;;1.23;1.00;;;18.00;67.00;;;;;;5055735;28;20179;-72
2021/10/12 02:42:51;;;;;;;1.25;0.88;;;18.00;67.00;;;;;;5055125;28;20171;-75
2021/10/12 02:45:16;;;;;;;1.67;0.90;;;18.00;67.00;;;;;;5054731;28;20176;-72
2021/10/12 02:47:42;;;;;;;2.35;1.13;;;18.00;67.10;;;;;;5055618;28;20164;-76
2021/10/12 02:50:08;;;;;;;1.88;1.13;;;18.00;67.00;;;;;;5054706;28;20201;-74
2021/10/12 02:52:33;;;;;;;1.25;0.80;;;18.00;67.00;;;;;;5054695;28;20171;-73
2021/10/12 02:54:59;;;;;;;1.52;1.05;;;18.00;67.00;;;;;;5055131;28;20163;-76
2021/10/12 02:57:24;;;;;;;1.83;1.30;;;18.00;67.10;;;;;;5055197;28;20193;-77
2021/10/12 02:59:50;;;;;;;0.80;0.80;;;18.00;67.00;;;;;;5054056;28;20738;-75
2021/10/12 03:02:15;;;;;;;0.98;0.80;;;18.00;67.10;;;;;;5055067;28;20171;-74
2021/10/12 03:04:41;;;;;;;1.23;0.98;;;18.00;67.10;;;;;;5055224;28;20258;-74
2021/10/12 03:07:06;;;;;;;1.23;0.80;;;18.00;67.10;;;;;;5054387;28;20555;-76
2021/10/12 03:09:32;;;;;;;1.20;1.10;;;18.00;67.00;;;;;;5055255;28;20171;-73
2021/10/12 03:11:57;;;;;;;2.13;1.08;;;18.00;67.00;;;;;;5054226;28;20167;-75
2021/10/12 03:14:23;;;;;;;2.08;1.10;;;17.90;67.20;;;;;;5054870;28;20191;-75
2021/10/12 03:16:48;;;;;;;2.03;1.23;;;18.00;67.10;;;;;;5054855;28;20167;-74
2021/10/12 03:19:16;;;;;;;2.72;1.25;;;17.90;67.00;;;;;;5054415;28;20206;-76
2021/10/12 03:21:50;;;;;;;1.55;1.20;;;18.00;67.10;;;;;;5054809;28;20178;-74
2021/10/12 03:24:16;;;;;;;1.80;1.17;;;18.00;67.00;;;;;;5054880;28;20578;-74
2021/10/12 03:26:41;;;;;;;1.45;0.95;;;17.90;67.00;;;;;;5054022;28;20187;-77
2021/10/12 03:29:07;;;;;;;1.83;1.00;;;17.90;67.00;;;;;;5054647;28;20183;-77
2021/10/12 03:31:32;;;;;;;1.27;1.10;;;17.90;67.00;;;;;;5054617;28;20229;-77
2021/10/12 03:33:58;;;;;;;2.20;1.10;;;18.00;67.00;;;;;;5053602;28;20583;-73
2021/10/12 03:36:23;;;;;;;2.10;1.30;;;17.90;67.00;;;;;;5054403;28;20654;-74
2021/10/12 03:38:48;;;;;;;1.90;1.00;;;17.90;67.00;;;;;;5054172;28;20218;-73
2021/10/12 03:41:14;;;;;;;1.80;0.90;;;17.90;67.00;;;;;;5053709;28;20178;-72
2021/10/12 03:43:39;;;;;;;1.55;0.90;;;17.90;66.90;;;;;;5054329;28;20178;-74
2021/10/12 03:46:05;;;;;;;1.30;1.02;;;17.90;66.90;;;;;;5053971;28;20595;-72
2021/10/12 03:48:30;;;;;;;1.63;1.17;;;17.90;67.00;;;;;;5053815;28;20256;-74
2021/10/12 03:50:56;;;;;;;0.95;0.85;;;17.90;67.00;;;;;;5054110;28;20171;-75
2021/10/12 03:53:21;;;;;;;2.35;1.40;;;17.90;67.00;;;;;;5054218;28;20190;-76
2021/10/12 03:55:47;;;;;;;1.08;0.80;;;17.90;67.00;;;;;;5053407;28;20171;-76
2021/10/12 03:58:12;;;;;;;1.70;1.20;;;17.90;67.00;;;;;;5054219;28;20229;-77
2021/10/12 04:00:38;;;;;;;1.42;0.85;;;17.90;67.00;;;;;;5053202;28;20175;-74
2021/10/12 04:03:03;;;;;;;1.50;0.90;;;17.90;67.80;;;;;;5053107;28;20179;-76
2021/10/12 04:05:29;;;;;;;1.25;1.10;;;17.90;66.90;;;;;;5054187;28;20278;-76
2021/10/12 04:07:54;;;;;;;2.08;1.05;;;17.90;67.00;;;;;;5053560;28;20221;-77
2021/10/12 04:10:20;;;;;;;1.23;1.00;;;17.90;67.00;;;;;;5053096;28;20827;-73
2021/10/12 04:12:46;;;;;;;1.33;0.75;;;17.80;66.90;;;;;;5054018;28;20287;-75
2021/10/12 04:15:11;;;;;;;1.15;0.90;;;17.80;67.00;;;;;;5052977;28;20190;-75
2021/10/12 04:17:37;;;;;;;2.25;1.17;;;17.90;67.00;;;;;;5053899;28;20629;-76
2021/10/12 04:20:03;;;;;;;1.80;1.00;;;17.80;67.00;;;;;;5053409;28;20241;-77
2021/10/12 04:22:29;;;;;;;2.08;1.15;;;17.90;67.00;;;;;;5052903;28;20510;-76
2021/10/12 04:24:54;;;;;;;1.55;0.90;;;17.90;67.00;;;;;;5053161;28;20218;-76
2021/10/12 04:27:20;;;;;;;1.58;0.82;;;17.90;67.00;;;;;;5053475;28;20178;-75
2021/10/12 04:29:45;;;;;;;1.48;1.10;;;17.80;67.00;;;;;;5052748;28;20232;-77
2021/10/12 04:32:11;;;;;;;0.90;0.77;;;17.80;67.00;;;;;;5053364;28;20693;-76
2021/10/12 04:34:37;;;;;;;1.20;0.93;;;17.80;67.00;;;;;;5053578;28;20203;-75
2021/10/12 04:37:03;;;;;;;1.60;0.90;;;17.80;67.00;;;;;;5052580;28;20250;-74
2021/10/12 04:39:28;;;;;;;1.35;0.93;;;17.80;67.00;;;;;;5053292;28;20237;-74
2021/10/12 04:41:57;;;;;;;1.58;1.05;;;17.80;67.00;;;;;;5052851;28;20266;-72
2021/10/12 04:44:23;;;;;;;2.28;1.08;;;17.80;67.00;;;;;;5052702;28;20182;-76
2021/10/12 04:46:48;;;;;;;1.98;1.10;;;17.80;67.00;;;;;;5053156;28;20187;-74
2021/10/12 04:49:14;;;;;;;2.13;1.00;;;17.80;66.90;;;;;;5053152;28;20207;-74
2021/10/12 04:51:39;;;;;;;1.27;0.85;;;17.80;67.00;;;;;;5052466;28;20697;-76
2021/10/12 04:54:05;;;;;;;1.05;0.80;;;17.80;67.00;;;;;;5052702;28;20244;-75
2021/10/12 04:56:30;;;;;;;2.15;0.90;;;17.80;67.00;;;;;;5053002;28;20634;-75
2021/10/12 04:58:56;;;;;;;1.88;0.95;;;17.80;67.00;;;;;;5052144;28;20211;-76
2021/10/12 05:01:21;;;;;;;1.13;0.93;;;17.80;67.00;;;;;;5053149;28;20178;-73
2021/10/12 05:03:47;;;;;;;1.77;1.10;;;17.80;67.00;;;;;;5052994;28;20179;-76
2021/10/12 05:06:12;;;;;;;1.95;0.95;;;17.80;67.00;;;;;;5052065;28;20167;-76
2021/10/12 05:08:38;;;;;;;1.27;0.90;;;17.80;67.00;;;;;;5052860;28;20228;-75
2021/10/12 05:11:03;;;;;;;1.80;1.00;;;17.80;67.00;;;;;;5052479;28;20521;-73
2021/10/12 05:13:29;;;;;;;1.10;1.00;;;17.80;67.00;;;;;;5052079;28;20187;-75
2021/10/12 05:15:55;;;;;;;0.95;0.82;;;17.70;67.00;;;;;;5052566;28;20222;-76
2021/10/12 05:18:26;;;;;;;1.13;0.95;;;17.70;67.10;;;;;;5052647;28;20199;-74
2021/10/12 05:20:51;;;;;;;1.00;0.90;;;17.70;67.00;;;;;;5052637;28;20206;-77
2021/10/12 05:23:17;;;;;;;1.85;0.98;;;17.70;67.10;;;;;;5052638;28;20175;-75
2021/10/12 05:25:46;;;;;;;1.30;0.90;;;17.70;67.00;;;;;;5051797;28;20333;-75
2021/10/12 05:28:11;;;;;;;2.67;1.10;;;17.70;67.00;;;;;;5052645;28;20186;-76
2021/10/12 05:30:40;;;;;;;2.42;0.82;;;17.70;67.00;;;;;;5052685;28;20540;-77
2021/10/12 05:33:07;;;;;;;2.08;0.80;;;17.70;67.00;;;;;;5051818;28;20171;-77
2021/10/12 05:35:33;;;;;;;1.30;0.80;;;17.70;67.00;;;;;;5052822;28;20175;-74
2021/10/12 05:37:59;;;;;;;2.00;0.98;;;17.70;67.00;;;;;;5052444;28;20654;-72
2021/10/12 05:40:24;;;;;;;1.33;1.00;;;17.70;67.00;;;;;;5051666;28;20210;-73
2021/10/12 05:42:50;;;;;;;1.95;1.17;;;17.70;67.00;;;;;;5052192;28;20558;-72
2021/10/12 05:45:15;;;;;;;1.40;0.90;;;17.70;67.10;;;;;;5052603;28;20230;-73
2021/10/12 05:47:41;;;;;;;1.50;0.80;;;17.70;67.10;;;;;;5051885;28;20182;-72
2021/10/12 05:50:06;;;;;;;1.20;0.80;;;17.70;67.00;;;;;;5052198;28;20171;-73
2021/10/12 05:52:34;;;;;;;1.15;0.90;;;17.70;67.10;;;;;;5052379;28;20199;-75
2021/10/12 05:55:13;;;;;;;1.60;1.00;;;17.70;67.10;;;;;;5051762;28;20187;-76
2021/10/12 05:57:42;;;;;;;1.70;0.77;;;17.70;67.00;;;;;;5052564;28;20179;-76
2021/10/12 06:00:11;;;;;;;1.02;0.75;;;17.70;67.10;;;;;;5052227;28;20268;-75
2021/10/12 06:02:36;;;;;;;2.33;0.88;;;17.70;67.10;;;;;;5051962;28;20210;-74
2021/10/12 06:05:02;;;;;;;1.33;0.85;;;17.70;67.10;;;;;;5052034;28;20206;-74
2021/10/12 06:07:27;;;;;;;0.70;0.70;;;17.70;67.10;;;;;;5052197;28;20182;-76
2021/10/12 06:09:53;;;;;;;1.35;0.80;;;17.70;67.10;;;;;;5051510;28;20229;-75
2021/10/12 06:12:18;;;;;;;2.08;1.10;;;17.70;67.10;;;;;;5052375;28;20225;-74
2021/10/12 06:14:44;;;;;;;2.35;1.10;;;17.70;67.10;;;;;;5051483;28;20182;-76
2021/10/12 06:17:10;;;;;;;2.03;0.98;;;17.70;67.10;;;;;;5051940;28;20284;-76
2021/10/12 06:19:35;;;;;;;1.17;0.60;;;17.60;67.00;;;;;;5052239;28;20203;-73
2021/10/12 06:22:01;;;;;;;1.77;0.85;;;17.70;67.10;;;;;;5051196;28;20182;-75
2021/10/12 06:24:26;;;;;;;1.23;0.90;;;17.70;67.10;;;;;;5053557;28;20233;-75
2021/10/12 06:26:52;;;;;;;1.52;1.10;;;17.60;67.00;;;;;;5055821;28;20182;-76
2021/10/12 06:29:17;;;;;;;1.40;0.93;;;17.60;67.00;;;;;;5055234;28;20175;-76
2021/10/12 06:31:43;;;;;;;1.60;0.82;;;17.70;67.10;;;;;;5055784;28;20171;-76
2021/10/12 06:34:08;;;;;;;1.48;0.95;;;17.70;67.10;;;;;;5055343;28;20544;-76
2021/10/12 06:36:35;;;;;;;0.77;0.63;;;17.70;67.10;;;;;;5055131;28;20248;-74
2021/10/12 06:39:01;;;;;;;0.80;0.80;;;17.60;67.00;;;;;;5055444;28;20207;-72
2021/10/12 06:41:26;;;;;;;1.10;0.93;;;17.60;67.10;;;;;;5055659;28;20179;-74
2021/10/12 06:43:52;;;;;;;1.23;0.93;;;17.60;67.00;;;;;;5054568;28;20252;-71
2021/10/12 06:46:17;;;;;;;2.63;1.02;;;17.60;67.00;;;;;;5055634;28;20712;-71
2021/10/12 06:48:43;;;;;;;2.15;0.90;;;17.60;67.10;;;;;;5055293;28;20269;-72
2021/10/12 06:51:08;;;;;;;1.63;0.95;;;17.60;67.90;;;;;;5054361;28;20171;-67
2021/10/12 06:53:34;;;;;;;2.00;1.10;;;17.70;67.20;;;;;;5055316;28;20688;-72
2021/10/12 06:55:59;;;;;;;1.40;0.90;;;17.70;67.20;;;;;;5054872;28;20237;-74
2021/10/12 06:58:25;;;;;;;3.13;1.10;;;17.70;67.30;;;;;;5054411;28;20202;-66
2021/10/12 07:00:50;;;;;;;3.97;1.25;;;17.70;67.20;;;;;;5055112;28;20175;-66
2021/10/12 07:03:16;;;;;;;5.00;1.20;;;17.70;67.60;;;;;;5055191;28;20240;-67
2021/10/12 07:05:41;;;;;;;1.88;1.20;;;17.70;67.50;;;;;;5062282;28;20232;-66
2021/10/12 07:08:07;;;;;;;3.60;1.10;;;17.70;67.40;;;;;;5057443;28;20548;-66
2021/10/12 07:10:32;;;;;;;2.58;1.05;;;17.70;67.50;;;;;;5075091;28;20198;-66
2021/10/12 07:12:58;;;;;;;2.40;1.20;;;17.70;67.50;;;;;;5066343;28;20168;-66
2021/10/12 07:15:23;;;;;;;1.98;1.25;;;17.60;67.50;;;;;;5055014;28;20179;-66
2021/10/12 07:17:49;;;;;;;5.25;1.30;;;17.60;67.50;;;;;;5054588;28;20167;-65
2021/10/12 07:20:14;;;;;;;4.55;1.20;;;17.70;67.80;;;;;;5053845;28;20203;-68
2021/10/12 07:22:40;;;;;;;3.10;1.38;;;17.70;67.70;;;;;;5054718;28;20626;-67
2021/10/12 07:25:06;;;;;;;5.05;1.20;;;17.70;67.50;;;;;;5053702;28;20230;-67
2021/10/12 07:27:32;;;;;;;2.70;1.17;;;17.60;67.80;;;;;;5054821;28;20171;-66
2021/10/12 07:29:58;;;;;;;1.95;1.05;;;17.70;67.60;;;;;;5054551;28;20186;-67
2021/10/12 07:32:24;;;;;;;4.65;1.38;;;17.70;67.60;;;;;;5053817;28;20179;-67
2021/10/12 07:34:49;;;;;;;2.40;1.10;;;17.70;67.70;;;;;;5054279;28;20228;-67
2021/10/12 07:37:15;;;;;;;2.70;0.88;;;17.60;67.60;;;;;;5054393;28;20634;-67
2021/10/12 07:39:41;;;;;;;2.28;1.13;;;17.60;67.70;;;;;;5053823;28;20269;-68
2021/10/12 07:42:08;;;;;;;3.70;1.23;;;17.60;67.80;;;;;;5054322;28;20533;-68
2021/10/12 07:44:34;;;;;;;3.78;1.10;;;17.60;67.60;;;;;;5054593;28;20206;-68
2021/10/12 07:47:00;;;;;;;2.10;1.15;;;17.60;67.70;;;;;;5053379;28;20171;-69
2021/10/12 07:49:25;;;;;;;1.40;1.05;;;17.70;67.80;;;;;;5054538;28;20667;-67
2021/10/12 07:51:51;;;;;;;3.95;1.50;;;17.60;67.80;;;;;;5054149;28;20179;-66
2021/10/12 07:54:24;;;;;;;2.75;1.13;;;17.70;67.80;;;;;;5053627;28;20168;-66
2021/10/12 07:56:50;;;;;;;5.10;1.33;;;17.60;67.80;;;;;;5053475;28;20602;-67
2021/10/12 07:59:18;;;;;;;2.85;1.45;;;17.60;67.80;;;;;;5053959;28;20294;-67
2021/10/12 08:01:43;;;;;;;6.28;1.52;;;17.60;67.80;;;;;;5053327;28;20579;-66
2021/10/12 08:04:09;;;;;;;1.58;1.10;;;17.60;67.70;;;;;;5053904;28;20634;-67
2021/10/12 08:06:34;;;;;;;3.47;1.10;;;17.60;67.80;;;;;;5053838;28;20561;-65
2021/10/12 08:09:00;;;;;;;3.40;1.08;;;17.60;67.80;;;;;;5052973;28;20202;-66
2021/10/12 08:11:27;;;;;;;2.53;1.33;;;17.60;67.80;;;;;;5054037;28;20285;-66
2021/10/12 08:13:58;;;;;;;2.53;1.10;;;17.60;67.90;;;;;;5053512;28;20179;-66
2021/10/12 08:16:29;;;;;;;2.78;1.30;;;17.60;67.80;;;;;;5053016;28;20171;-67
2021/10/12 08:18:55;;;;;;;2.80;1.20;;;17.60;67.90;;;;;;5053473;28;20297;-67
2021/10/12 08:21:21;;;;;;;2.05;1.33;;;17.50;67.90;;;;;;5052808;28;20671;-67
2021/10/12 08:23:47;;;;;;;4.13;1.60;;;17.50;67.90;;;;;;5053723;28;20183;-66
2021/10/12 08:26:13;;;;;;;2.50;1.10;;;17.60;67.90;;;;;;5053412;28;20301;-65
2021/10/12 08:28:39;;;;;;;2.90;1.15;;;17.60;67.90;;;;;;5052807;28;20186;-66
2021/10/12 08:31:04;;;;;;;2.10;1.17;;;17.60;67.90;;;;;;5053139;28;20171;-67
2021/10/12 08:33:30;;;;;;;2.40;1.42;;;17.60;67.90;;;;;;5053361;28;20228;-67
2021/10/12 08:35:55;;;;;;;3.08;1.50;;;17.60;67.90;;;;;;5052431;28;20525;-67
2021/10/12 08:38:21;;;;;;;1.95;1.15;;;17.60;67.90;;;;;;5053405;28;20167;-67
2021/10/12 08:40:46;;;;;;;3.10;1.30;;;17.50;67.90;;;;;;5053433;28;20270;-67
2021/10/12 08:43:13;;;;;;;1.35;1.20;;;17.60;68.40;;;;;;5051151;28;20172;-68
2021/10/12 08:45:39;;;;;;;2.15;1.20;;;17.60;68.00;;;;;;5051978;28;20245;-67
2021/10/12 08:48:05;;;;;;;2.92;1.20;;;17.60;68.00;;;;;;5051419;28;20167;-67
2021/10/12 08:50:31;;;;;;;3.28;1.33;;;17.60;68.00;;;;;;5052497;28;20233;-66
2021/10/12 08:52:56;;;;;;;2.45;1.15;;;17.60;68.00;;;;;;5052739;28;20568;-67
2021/10/12 08:55:22;;;;;;;1.65;1.10;;;17.60;68.20;;;;;;5053066;28;20171;-67
2021/10/12 08:57:47;;;;;;;1.98;1.30;;;17.60;67.90;;;;;;5052331;28;20202;-67
2021/10/12 09:00:14;;;;;;;3.38;1.50;;;17.60;68.00;;;;;;5053528;28;20294;-67
2021/10/12 09:03:15;;;;;;;1.77;1.00;;;17.60;68.10;;;;;;5053120;28;20171;-67
2021/10/12 09:05:58;;;;;;;1.67;1.10;;;17.70;68.20;;;;;;5052208;28;20637;-66
2021/10/12 09:08:35;;;;;;;2.75;1.02;;;17.70;68.30;;;;;;5052865;28;20178;-67
2021/10/12 09:11:01;;;;;;;1.52;1.10;;;17.70;68.30;;;;;;5051995;28;20170;-66
2021/10/12 09:13:27;;;;;;;2.90;1.15;;;17.70;68.30;;;;;;5052929;28;20171;-66
2021/10/12 09:16:06;;;;;;;3.03;1.60;;;17.70;68.40;;;;;;5052631;28;20550;-66
2021/10/12 09:18:49;;;;;;;1.83;1.00;;;17.70;68.30;;;;;;5051956;28;20581;-68
2021/10/12 09:21:15;;;;;;;3.15;1.10;;;17.70;68.40;;;;;;5052948;28;20263;-67
2021/10/12 09:23:41;;;;;;;1.48;0.95;;;17.70;68.40;;;;;;5052997;28;20186;-66
2021/10/12 09:26:24;;;;;;;4.28;1.33;;;17.70;68.50;;;;;;5051601;28;20262;-66
2021/10/12 09:28:50;;;;;;;2.38;1.42;;;17.70;68.30;;;;;;5052551;28;20176;-67
2021/10/12 09:31:16;;;;;;;2.67;1.20;;;17.70;68.30;;;;;;5052799;28;20171;-67
2021/10/12 09:33:50;;;;;;;2.95;1.30;;;17.70;68.20;;;;;;5052059;28;20175;-68
2021/10/12 09:36:33;;;;;;;3.28;1.38;;;17.70;68.20;;;;;;5052785;28;20182;-73
2021/10/12 09:38:59;;;;;;;1.73;1.08;;;17.70;68.30;;;;;;5050557;28;20423;-73
2021/10/12 09:41:28;;;;;;;2.30;1.25;;;17.80;68.10;;;;;;5051171;28;20685;-75
2021/10/12 09:44:05;;;;;;;2.72;1.30;;;17.80;67.90;;;;;;5049906;28;20190;-75
2021/10/12 09:46:32;;;;;;;2.95;1.08;;;17.80;67.90;;;;;;5048223;28;20171;-73
2021/10/12 09:49:20;;;;;;;1.75;1.05;;;17.80;68.00;;;;;;5050035;28;20208;-74
2021/10/12 09:51:58;;;;;;;2.65;1.23;;;17.80;68.10;;;;;;5050590;28;20229;-72
2021/10/12 09:54:32;;;;;;;3.15;1.27;;;17.90;68.20;;;;;;5050367;28;20205;-72
2021/10/12 09:56:59;;;;;;;2.15;0.85;;;17.90;68.10;;;;;;5049402;28;20179;-70
2021/10/12 09:59:24;;;;;;;2.53;0.90;;;17.90;68.10;;;;;;5052501;28;20211;-71
2021/10/12 10:01:50;;;;;;;2.25;1.00;;;17.90;68.10;;;;;;5051438;28;20167;-73
2021/10/12 10:04:18;;;;;;;2.58;1.40;;;17.90;68.10;;;;;;5053584;28;20175;-73
2021/10/12 10:06:44;;;;;;;2.22;0.90;;;17.90;68.10;;;;;;5054906;28;20254;-68
2021/10/12 10:09:11;;;;;;;1.65;1.00;;;17.90;68.10;;;;;;5052630;28;20182;-68
2021/10/12 10:11:38;;;;;;;2.90;1.35;;;18.00;68.00;;;;;;5055078;28;20302;-68
2021/10/12 10:14:05;;;;;;;1.58;1.00;;;18.00;68.00;;;;;;5055263;28;20195;-69
2021/10/12 10:16:31;;;;;;;2.95;1.05;;;18.00;68.00;;;;;;5055029;28;20228;-71
2021/10/12 10:18:56;;;;;;;2.15;1.20;;;18.00;68.00;;;;;;5054489;28;20202;-71
2021/10/12 10:21:22;;;;;;;2.20;1.48;;;18.00;68.00;;;;;;5053120;28;20236;-72
2021/10/12 10:24:09;;;;;;;3.28;1.17;;;18.00;68.00;;;;;;5053134;28;20172;-70
2021/10/12 10:26:36;;;;;;;2.55;0.90;;;18.00;68.00;;;;;;5052338;28;20190;-69
2021/10/12 10:29:25;;;;;;;1.02;0.90;;;18.00;68.00;;;;;;5053705;28;20179;-71
2021/10/12 10:31:56;;;;;;;1.73;1.00;;;18.00;67.90;;;;;;5054128;28;20178;-70
2021/10/12 10:34:37;;;;;;;1.38;0.80;;;18.00;68.00;;;;;;5054522;28;20175;-71
2021/10/12 10:37:15;;;;;;;1.77;0.90;;;18.00;68.00;;;;;;5052397;28;20167;-71
2021/10/12 10:39:51;;;;;;;2.47;0.93;;;18.10;68.00;;;;;;5052909;28;20788;-71
2021/10/12 10:42:42;;;;;;;2.13;0.95;;;18.10;68.00;;;;;;5054647;28;20695;-66
2021/10/12 10:45:08;;;;;;;3.47;1.15;;;18.10;68.90;;;;;;5054782;28;20698;-65
2021/10/12 10:47:40;;;;;;;2.15;1.15;;;18.10;68.00;;;;;;5055223;28;20258;-64
2021/10/12 10:50:25;;;;;;;4.13;1.17;;;18.00;68.10;;;;;;5054320;28;20167;-63
2021/10/12 10:52:52;;;;;;;2.13;1.02;;;18.10;67.90;;;;;;5055222;28;20205;-62
2021/10/12 10:55:22;;;;;;;4.90;0.88;;;18.20;67.80;;;;;;5055238;28;20175;-64
2021/10/12 10:58:07;;;;;;;1.58;0.90;;;18.30;67.70;;;;;;5054509;28;20179;-64
2021/10/12 11:00:39;;;;;;;3.53;0.90;;;18.30;67.40;;;;;;5054979;28;20297;-64
2021/10/12 11:03:04;;;;;;;2.65;1.05;;;18.40;67.30;;;;;;5054299;28;20179;-64
2021/10/12 11:05:38;;;;;;;3.00;0.95;;;18.50;67.20;;;;;;5055162;28;20190;-73
2021/10/12 11:08:18;;;;;;;3.42;0.90;;;18.40;67.30;;;;;;5054855;28;20185;-74
2021/10/12 11:10:49;;;;;;;2.25;0.82;;;18.60;67.10;;;;;;5053784;28;20273;-73
2021/10/12 11:13:30;;;;;;;1.70;0.98;;;18.60;67.00;;;;;;5054918;28;20189;-71
2021/10/12 11:15:56;;;;;;;4.40;1.25;;;18.60;67.20;;;;;;5054589;28;20533;-74
2021/10/12 11:18:21;;;;;;;2.65;0.90;;;18.60;67.40;;;;;;5054156;28;20172;-74
2021/10/12 11:20:48;;;;;;;2.42;1.20;;;18.50;67.40;;;;;;5054902;28;20194;-68
2021/10/12 11:23:20;;;;;;;1.77;1.00;;;18.50;67.70;;;;;;5054976;28;20194;-67
2021/10/12 11:25:51;;;;;;;3.40;0.93;;;18.40;67.90;;;;;;5052616;28;20227;-65
2021/10/12 11:28:17;;;;;;;1.02;0.70;;;18.30;67.90;;;;;;5053795;28;20199;-64
2021/10/12 11:30:42;;;;;;;3.17;1.30;;;18.30;68.10;;;;;;5053344;28;20264;-64
2021/10/12 11:33:08;;;;;;;1.90;0.70;;;18.30;68.10;;;;;;5053789;28;20164;-66
2021/10/12 11:35:36;;;;;;;2.00;0.70;;;18.30;68.00;;;;;;5054627;28;20258;-63
2021/10/12 11:38:01;;;;;;;1.20;0.82;;;18.30;67.90;;;;;;5053394;28;20176;-67
2021/10/12 11:40:27;;;;;;;2.90;0.90;;;18.30;67.90;;;;;;5053051;28;20233;-68
2021/10/12 11:42:53;;;;;;;3.42;0.80;;;18.40;68.00;;;;;;5054009;28;20177;-69
2021/10/12 11:45:18;;;;;;;2.80;0.93;;;18.40;67.90;;;;;;5053535;28;20191;-67
2021/10/12 11:47:44;;;;;;;3.78;0.80;;;18.40;67.70;;;;;;5054385;28;20549;-68
2021/10/12 11:50:10;;;;;;;1.52;0.85;;;18.40;67.70;;;;;;5053914;28;20182;-66
2021/10/12 11:52:35;;;;;;;2.55;0.80;;;18.50;67.70;;;;;;5053517;28;20939;-68
2021/10/12 11:55:08;;;;;;;1.60;0.80;;;18.50;67.60;;;;;;5054040;28;20249;-67
2021/10/12 11:57:34;;;;;;;3.22;0.80;;;18.50;67.50;;;;;;5054328;28;20179;-67
2021/10/12 11:59:59;;;;;;;2.15;0.75;;;18.50;67.50;;;;;;5053261;28;20218;-67
2021/10/12 12:02:29;;;;;;;2.40;0.85;;;18.50;67.60;;;;;;5054129;28;20615;-68
2021/10/12 12:04:59;;;;;;;1.63;0.77;;;18.40;67.60;;;;;;5053894;28;20193;-68
2021/10/12 12:07:30;;;;;;;2.78;1.00;;;18.40;67.60;;;;;;5053368;28;20568;-66
2021/10/12 12:09:55;;;;;;;3.03;0.93;;;18.40;67.60;;;;;;5054024;28;20210;-66
2021/10/12 12:12:21;;;;;;;3.03;0.93;;;18.40;67.60;;;;;;5052552;28;20619;-66
2021/10/12 12:14:50;;;;;;;1.83;0.60;;;18.50;67.50;;;;;;5052040;28;20183;-67
2021/10/12 12:17:23;;;;;;;1.58;0.65;;;18.50;67.30;;;;;;5052758;28;20236;-67
2021/10/12 12:19:53;;;;;;;3.20;0.70;;;18.50;67.40;;;;;;5053480;28;20257;-68
2021/10/12 12:22:29;;;;;;;0.80;0.50;;;18.50;67.40;;;;;;5052218;28;20177;-67
2021/10/12 12:25:02;;;;;;;0.52;0.50;;;18.50;67.50;;;;;;5053320;28;20230;-66
2021/10/12 12:27:35;;;;;;;2.92;1.00;;;18.50;67.40;;;;;;5052959;28;20202;-65
2021/10/12 12:30:06;;;;;;;2.83;0.80;;;18.50;67.30;;;;;;5053372;28;20179;-66
2021/10/12 12:32:31;;;;;;;1.13;0.60;;;18.60;67.20;;;;;;5053375;28;20510;-66
2021/10/12 12:35:16;;;;;;;1.60;0.50;;;18.60;67.10;;;;;;5051168;28;20179;-68
2021/10/12 12:37:41;;;;;;;2.08;0.52;;;18.60;67.10;;;;;;5053343;28;20630;-67
2021/10/12 12:40:27;;;;;;;1.40;0.90;;;18.50;67.20;;;;;;5051843;28;20372;-67
2021/10/12 12:42:52;;;;;;;1.05;0.80;;;18.50;67.30;;;;;;5052384;28;20183;-67
2021/10/12 12:45:22;;;;;;;1.30;0.60;;;18.50;67.30;;;;;;5053232;28;20175;-67
2021/10/12 12:47:53;;;;;;;2.20;0.80;;;18.60;67.00;;;;;;5053101;28;20183;-67